0NY3 weather

Kermizian Airport
Ohio, New York, United States

Public forecast

Using degrees Fahrenheit for public forecast. Weather courtesy of forecast.io.

Closest aviation weather report (METAR) to Kermizian Airport

Closest report is Griffiss International Airport, 21.3 nm (39.5 km) WSW. Retrieved 2019/12/13 23:53 UTC (13 minutes ago):

KRME 132353Z 12005KT 10SM FEW021 BKN030 OVC047 02/02 A3011 RMK AO2 RAE48UPB27E33 SLP199 P0000 60009 T00170017 10017 20006 58015

Closest aviation forecast (TAF) to Kermizian Airport

Closest forecast is Griffiss International Airport, 21.3 nm (39.5 km) WSW. Retrieved 2019-12-14 00:40 UTC (0 seconds ago):

TAF KRME 132338Z 1400/1424 11007KT 6SM -DZ BR OVC015 FM140500 10010KT 2SM -RA BR OVC008 FM141200 09008KT 3SM BR OVC011 FM141900 VRB03KT 5SM -RA BR OVC007